sensor_id;sensor_type;location;lat;lon;timestamp;pressure;altitude;pressure_sealevel;temperature;humidity
50166;BME280;36071;48.140;11.516;2023-02-04T00:03:28;96440.0;;;4.5;92.5
50166;BME280;36071;48.140;11.516;2023-02-04T00:08:28;96440.0;;;4.4;93.9
50166;BME280;36071;48.140;11.516;2023-02-04T00:13:28;96440.0;;;4.4;94.6
50166;BME280;36071;48.140;11.516;2023-02-04T00:18:28;96440.0;;;4.4;94.9
50166;BME280;36071;48.140;11.516;2023-02-04T00:23:28;96440.0;;;4.5;95.4
50166;BME280;36071;48.140;11.516;2023-02-04T00:28:28;96430.0;;;4.4;96.2
50166;BME280;36071;48.140;11.516;2023-02-04T00:33:28;96440.0;;;4.5;95.4
50166;BME280;36071;48.140;11.516;2023-02-04T00:38:30;96440.0;;;4.4;95.4
50166;BME280;36071;48.140;11.516;2023-02-04T00:43:28;96450.0;;;4.4;95.7
50166;BME280;36071;48.140;11.516;2023-02-04T00:48:28;96460.0;;;4.5;95.6
50166;BME280;36071;48.140;11.516;2023-02-04T00:53:28;96460.0;;;4.4;96.2
50166;BME280;36071;48.140;11.516;2023-02-04T00:58:29;96460.0;;;4.5;96.4
50166;BME280;36071;48.140;11.516;2023-02-04T01:03:28;96470.0;;;4.4;96.1
50166;BME280;36071;48.140;11.516;2023-02-04T01:08:28;96480.0;;;4.4;97.0
50166;BME280;36071;48.140;11.516;2023-02-04T01:13:28;96500.0;;;4.3;96.9
50166;BME280;36071;48.140;11.516;2023-02-04T01:18:28;96490.0;;;4.4;97.5
50166;BME280;36071;48.140;11.516;2023-02-04T01:23:28;96490.0;;;4.4;97.3
50166;BME280;36071;48.140;11.516;2023-02-04T01:28:28;96490.0;;;4.3;97.1
50166;BME280;36071;48.140;11.516;2023-02-04T01:33:28;96490.0;;;4.4;96.3
50166;BME280;36071;48.140;11.516;2023-02-04T01:38:28;96500.0;;;4.4;94.8
50166;BME280;36071;48.140;11.516;2023-02-04T01:43:28;96490.0;;;4.4;94.6
50166;BME280;36071;48.140;11.516;2023-02-04T01:48:28;96520.0;;;4.4;94.0
50166;BME280;36071;48.140;11.516;2023-02-04T01:53:28;96520.0;;;4.4;94.6
50166;BME280;36071;48.140;11.516;2023-02-04T01:58:28;96520.0;;;4.5;94.0
50166;BME280;36071;48.140;11.516;2023-02-04T02:03:28;96520.0;;;4.5;93.9
50166;BME280;36071;48.140;11.516;2023-02-04T02:08:28;96520.0;;;4.5;94.1
50166;BME280;36071;48.140;11.516;2023-02-04T02:13:28;96530.0;;;4.5;94.3
50166;BME280;36071;48.140;11.516;2023-02-04T02:18:28;96530.0;;;4.5;94.7
50166;BME280;36071;48.140;11.516;2023-02-04T02:23:41;96530.0;;;4.6;95.1
50166;BME280;36071;48.140;11.516;2023-02-04T02:28:28;96550.0;;;4.5;96.0
50166;BME280;36071;48.140;11.516;2023-02-04T02:33:28;96570.0;;;4.6;96.2
50166;BME280;36071;48.140;11.516;2023-02-04T02:38:28;96570.0;;;4.5;96.8
50166;BME280;36071;48.140;11.516;2023-02-04T02:43:28;96570.0;;;4.6;96.2
50166;BME280;36071;48.140;11.516;2023-02-04T02:48:28;96560.0;;;4.6;95.8
50166;BME280;36071;48.140;11.516;2023-02-04T02:53:28;96570.0;;;4.5;95.3
50166;BME280;36071;48.140;11.516;2023-02-04T02:58:28;96560.0;;;4.5;94.3
50166;BME280;36071;48.140;11.516;2023-02-04T03:03:28;96570.0;;;4.5;93.8
50166;BME280;36071;48.140;11.516;2023-02-04T03:08:28;96570.0;;;4.4;93.0
50166;BME280;36071;48.140;11.516;2023-02-04T03:13:28;96570.0;;;4.4;92.1
50166;BME280;36071;48.140;11.516;2023-02-04T03:18:29;96590.0;;;4.3;91.1
50166;BME280;36071;48.140;11.516;2023-02-04T03:23:28;96580.0;;;4.3;90.3
50166;BME280;36071;48.140;11.516;2023-02-04T03:28:28;96600.0;;;4.3;90.6
50166;BME280;36071;48.140;11.516;2023-02-04T03:33:31;96610.0;;;4.3;90.9
50166;BME280;36071;48.140;11.516;2023-02-04T03:38:28;96610.0;;;4.3;91.5
50166;BME280;36071;48.140;11.516;2023-02-04T03:43:28;96620.0;;;4.2;91.6
50166;BME280;36071;48.140;11.516;2023-02-04T03:48:28;96630.0;;;4.2;90.5
50166;BME280;36071;48.140;11.516;2023-02-04T03:53:28;96640.0;;;4.2;90.1
50166;BME280;36071;48.140;11.516;2023-02-04T03:58:28;96660.0;;;4.1;89.2
50166;BME280;36071;48.140;11.516;2023-02-04T04:03:28;96660.0;;;4.1;87.6
50166;BME280;36071;48.140;11.516;2023-02-04T04:08:28;96680.0;;;4.1;87.4
50166;BME280;36071;48.140;11.516;2023-02-04T04:13:28;96680.0;;;4.2;87.4
50166;BME280;36071;48.140;11.516;2023-02-04T04:18:28;96680.0;;;4.1;88.5
50166;BME280;36071;48.140;11.516;2023-02-04T04:23:28;96690.0;;;4.0;87.4
50166;BME280;36071;48.140;11.516;2023-02-04T04:28:28;96680.0;;;4.0;86.2
50166;BME280;36071;48.140;11.516;2023-02-04T04:33:28;96680.0;;;3.9;85.9
50166;BME280;36071;48.140;11.516;2023-02-04T04:38:28;96690.0;;;3.8;85.7
50166;BME280;36071;48.140;11.516;2023-02-04T04:43:28;96600.0;;;3.2;84.4
50166;BME280;36071;48.140;11.516;2023-02-04T04:48:28;96700.0;;;3.7;84.9
50166;BME280;36071;48.140;11.516;2023-02-04T04:53:28;96710.0;;;3.6;84.2
50166;BME280;36071;48.140;11.516;2023-02-04T04:58:28;96710.0;;;3.6;84.0
50166;BME280;36071;48.140;11.516;2023-02-04T05:03:28;96720.0;;;3.5;83.7
50166;BME280;36071;48.140;11.516;2023-02-04T05:08:28;96740.0;;;3.5;83.2
50166;BME280;36071;48.140;11.516;2023-02-04T05:13:28;96740.0;;;3.5;83.0
50166;BME280;36071;48.140;11.516;2023-02-04T05:18:28;96740.0;;;3.5;83.5
50166;BME280;36071;48.140;11.516;2023-02-04T05:23:28;96730.0;;;3.6;82.4
50166;BME280;36071;48.140;11.516;2023-02-04T05:28:28;96750.0;;;3.5;82.7
50166;BME280;36071;48.140;11.516;2023-02-04T05:33:28;96750.0;;;3.6;81.8
50166;BME280;36071;48.140;11.516;2023-02-04T05:38:28;96760.0;;;3.5;82.1
50166;BME280;36071;48.140;11.516;2023-02-04T05:43:28;96750.0;;;3.6;82.0
50166;BME280;36071;48.140;11.516;2023-02-04T05:48:28;96770.0;;;3.6;81.3
50166;BME280;36071;48.140;11.516;2023-02-04T05:53:28;96790.0;;;3.5;81.9
50166;BME280;36071;48.140;11.516;2023-02-04T05:58:28;96790.0;;;3.6;82.4
50166;BME280;36071;48.140;11.516;2023-02-04T06:03:28;96800.0;;;3.6;82.4
50166;BME280;36071;48.140;11.516;2023-02-04T06:08:28;96820.0;;;3.6;83.5
50166;BME280;36071;48.140;11.516;2023-02-04T06:13:28;96830.0;;;3.6;84.3
50166;BME280;36071;48.140;11.516;2023-02-04T06:18:28;96830.0;;;3.6;85.2
50166;BME280;36071;48.140;11.516;2023-02-04T06:23:28;96840.0;;;3.7;84.7
50166;BME280;36071;48.140;11.516;2023-02-04T06:28:28;96860.0;;;3.6;85.7
50166;BME280;36071;48.140;11.516;2023-02-04T06:33:28;96860.0;;;3.7;85.7
50166;BME280;36071;48.140;11.516;2023-02-04T06:38:28;96870.0;;;3.7;84.7
50166;BME280;36071;48.140;11.516;2023-02-04T06:43:28;96860.0;;;3.7;84.4
50166;BME280;36071;48.140;11.516;2023-02-04T06:48:28;96870.0;;;3.7;84.3
50166;BME280;36071;48.140;11.516;2023-02-04T06:53:28;96860.0;;;3.7;83.3
50166;BME280;36071;48.140;11.516;2023-02-04T06:58:28;96870.0;;;3.6;82.7
50166;BME280;36071;48.140;11.516;2023-02-04T07:03:28;96870.0;;;3.7;81.7
50166;BME280;36071;48.140;11.516;2023-02-04T07:08:28;96880.0;;;3.6;81.7
50166;BME280;36071;48.140;11.516;2023-02-04T07:13:28;96890.0;;;3.6;80.8
50166;BME280;36071;48.140;11.516;2023-02-04T07:18:28;96900.0;;;3.7;80.3
50166;BME280;36071;48.140;11.516;2023-02-04T07:23:28;96910.0;;;3.7;79.7
50166;BME280;36071;48.140;11.516;2023-02-04T07:33:28;96920.0;;;3.8;79.4
50166;BME280;36071;48.140;11.516;2023-02-04T07:38:28;96920.0;;;3.8;77.8
50166;BME280;36071;48.140;11.516;2023-02-04T07:43:28;96940.0;;;3.7;77.5
50166;BME280;36071;48.140;11.516;2023-02-04T07:48:28;96950.0;;;3.7;77.2
50166;BME280;36071;48.140;11.516;2023-02-04T07:53:28;96950.0;;;3.7;77.5
50166;BME280;36071;48.140;11.516;2023-02-04T07:58:28;96960.0;;;3.8;77.1
50166;BME280;36071;48.140;11.516;2023-02-04T08:03:28;96950.0;;;3.8;76.5
50166;BME280;36071;48.140;11.516;2023-02-04T08:08:28;96950.0;;;3.8;76.3
50166;BME280;36071;48.140;11.516;2023-02-04T08:13:28;96950.0;;;3.8;76.0
50166;BME280;36071;48.140;11.516;2023-02-04T08:18:28;96950.0;;;3.8;76.2
50166;BME280;36071;48.140;11.516;2023-02-04T08:23:28;96970.0;;;3.9;75.8
50166;BME280;36071;48.140;11.516;2023-02-04T08:33:28;96970.0;;;3.9;75.7
50166;BME280;36071;48.140;11.516;2023-02-04T08:38:28;96990.0;;;4.0;75.6
50166;BME280;36071;48.140;11.516;2023-02-04T08:43:28;96990.0;;;4.1;75.3
50166;BME280;36071;48.140;11.516;2023-02-04T08:48:28;97000.0;;;4.1;75.0
50166;BME280;36071;48.140;11.516;2023-02-04T08:53:28;97000.0;;;4.3;74.4
50166;BME280;36071;48.140;11.516;2023-02-04T08:58:28;97010.0;;;4.7;73.4
50166;BME280;36071;48.140;11.516;2023-02-04T09:03:28;97010.0;;;5.8;69.6
50166;BME280;36071;48.140;11.516;2023-02-04T09:08:28;97010.0;;;5.3;68.7
50166;BME280;36071;48.140;11.516;2023-02-04T09:13:28;97020.0;;;5.3;69.3
50166;BME280;36071;48.140;11.516;2023-02-04T09:18:28;97030.0;;;5.3;69.5
50166;BME280;36071;48.140;11.516;2023-02-04T09:23:28;97030.0;;;5.3;70.1
50166;BME280;36071;48.140;11.516;2023-02-04T09:28:28;97030.0;;;5.3;69.9
50166;BME280;36071;48.140;11.516;2023-02-04T09:33:28;97030.0;;;5.1;69.2
50166;BME280;36071;48.140;11.516;2023-02-04T09:38:28;97040.0;;;4.9;69.4
50166;BME280;36071;48.140;11.516;2023-02-04T09:43:28;97050.0;;;4.9;69.5
50166;BME280;36071;48.140;11.516;2023-02-04T09:48:28;97050.0;;;5.1;69.7
50166;BME280;36071;48.140;11.516;2023-02-04T09:53:28;97060.0;;;5.2;68.9
50166;BME280;36071;48.140;11.516;2023-02-04T09:58:29;97070.0;;;5.1;69.9
50166;BME280;36071;48.140;11.516;2023-02-04T10:03:28;97060.0;;;5.2;68.8
50166;BME280;36071;48.140;11.516;2023-02-04T10:08:28;97060.0;;;5.0;69.7
50166;BME280;36071;48.140;11.516;2023-02-04T10:13:29;97070.0;;;5.2;69.0
50166;BME280;36071;48.140;11.516;2023-02-04T10:18:29;97070.0;;;5.2;69.1
50166;BME280;36071;48.140;11.516;2023-02-04T10:23:28;97080.0;;;5.3;68.3
50166;BME280;36071;48.140;11.516;2023-02-04T10:28:32;97070.0;;;5.3;68.9
50166;BME280;36071;48.140;11.516;2023-02-04T10:33:28;97080.0;;;5.2;68.9
50166;BME280;36071;48.140;11.516;2023-02-04T10:38:28;97080.0;;;5.1;69.5
50166;BME280;36071;48.140;11.516;2023-02-04T10:43:28;97080.0;;;5.2;71.4
50166;BME280;36071;48.140;11.516;2023-02-04T10:48:28;97080.0;;;5.0;72.4
50166;BME280;36071;48.140;11.516;2023-02-04T10:53:28;97080.0;;;5.1;71.6
50166;BME280;36071;48.140;11.516;2023-02-04T10:58:28;97070.0;;;5.2;72.4
50166;BME280;36071;48.140;11.516;2023-02-04T11:03:28;97070.0;;;5.3;71.4
50166;BME280;36071;48.140;11.516;2023-02-04T11:08:29;97080.0;;;5.8;71.1
50166;BME280;36071;48.140;11.516;2023-02-04T11:13:38;97070.0;;;5.9;69.2
50166;BME280;36071;48.140;11.516;2023-02-04T11:18:28;97070.0;;;6.1;67.2
50166;BME280;36071;48.140;11.516;2023-02-04T11:23:29;97070.0;;;6.1;66.4
50166;BME280;36071;48.140;11.516;2023-02-04T11:28:28;97070.0;;;7.0;62.3
50166;BME280;36071;48.140;11.516;2023-02-04T11:33:35;97070.0;;;7.3;60.5
50166;BME280;36071;48.140;11.516;2023-02-04T11:38:28;97070.0;;;8.5;56.6
50166;BME280;36071;48.140;11.516;2023-02-04T11:43:28;97080.0;;;10.1;52.5
50166;BME280;36071;48.140;11.516;2023-02-04T11:48:28;97080.0;;;9.3;53.1
50166;BME280;36071;48.140;11.516;2023-02-04T11:53:28;97080.0;;;8.6;54.7
50166;BME280;36071;48.140;11.516;2023-02-04T11:58:28;97090.0;;;8.0;54.7
50166;BME280;36071;48.140;11.516;2023-02-04T12:03:29;97090.0;;;7.4;57.7
50166;BME280;36071;48.140;11.516;2023-02-04T12:08:30;97080.0;;;7.1;57.8
50166;BME280;36071;48.140;11.516;2023-02-04T12:13:28;97080.0;;;6.8;58.3
50166;BME280;36071;48.140;11.516;2023-02-04T12:18:28;97090.0;;;6.8;58.8
50166;BME280;36071;48.140;11.516;2023-02-04T12:23:28;97090.0;;;6.7;58.7
50166;BME280;36071;48.140;11.516;2023-02-04T12:28:28;97080.0;;;6.7;59.3
50166;BME280;36071;48.140;11.516;2023-02-04T12:33:28;97080.0;;;6.9;58.9
50166;BME280;36071;48.140;11.516;2023-02-04T12:38:28;97080.0;;;6.9;58.3
50166;BME280;36071;48.140;11.516;2023-02-04T12:43:28;97080.0;;;6.8;58.9
50166;BME280;36071;48.140;11.516;2023-02-04T12:48:28;97090.0;;;6.4;59.4
50166;BME280;36071;48.140;11.516;2023-02-04T12:53:28;97090.0;;;6.3;59.5
50166;BME280;36071;48.140;11.516;2023-02-04T12:58:28;97080.0;;;6.1;59.9
50166;BME280;36071;48.140;11.516;2023-02-04T13:03:28;97070.0;;;6.3;59.8
50166;BME280;36071;48.140;11.516;2023-02-04T13:08:28;97070.0;;;6.1;58.5
50166;BME280;36071;48.140;11.516;2023-02-04T13:13:28;97070.0;;;6.1;58.6
50166;BME280;36071;48.140;11.516;2023-02-04T13:18:28;97070.0;;;6.1;58.2
50166;BME280;36071;48.140;11.516;2023-02-04T13:23:28;97080.0;;;6.0;58.8
50166;BME280;36071;48.140;11.516;2023-02-04T13:28:28;97080.0;;;5.9;59.5
50166;BME280;36071;48.140;11.516;2023-02-04T13:33:28;97080.0;;;6.0;60.1
50166;BME280;36071;48.140;11.516;2023-02-04T13:38:28;97100.0;;;5.8;60.9
50166;BME280;36071;48.140;11.516;2023-02-04T13:43:28;97110.0;;;5.8;61.2
50166;BME280;36071;48.140;11.516;2023-02-04T13:48:28;97110.0;;;5.7;61.2
50166;BME280;36071;48.140;11.516;2023-02-04T13:53:28;97120.0;;;5.6;61.8
50166;BME280;36071;48.140;11.516;2023-02-04T13:58:28;97120.0;;;5.7;62.3
50166;BME280;36071;48.140;11.516;2023-02-04T14:03:28;97130.0;;;5.6;62.4
50166;BME280;36071;48.140;11.516;2023-02-04T14:08:28;97140.0;;;5.6;62.4
50166;BME280;36071;48.140;11.516;2023-02-04T14:13:28;97150.0;;;6.0;62.0
50166;BME280;36071;48.140;11.516;2023-02-04T14:18:28;97140.0;;;6.2;61.3
50166;BME280;36071;48.140;11.516;2023-02-04T14:23:28;97140.0;;;6.1;59.3
50166;BME280;36071;48.140;11.516;2023-02-04T14:28:28;97160.0;;;6.0;60.7
50166;BME280;36071;48.140;11.516;2023-02-04T14:33:29;97160.0;;;6.0;60.2
50166;BME280;36071;48.140;11.516;2023-02-04T14:38:28;97160.0;;;5.9;59.3
50166;BME280;36071;48.140;11.516;2023-02-04T14:43:28;97160.0;;;5.9;59.1
50166;BME280;36071;48.140;11.516;2023-02-04T14:48:28;97160.0;;;5.8;57.7
50166;BME280;36071;48.140;11.516;2023-02-04T14:53:28;97160.0;;;5.8;58.3
50166;BME280;36071;48.140;11.516;2023-02-04T14:58:28;97160.0;;;5.6;58.7
50166;BME280;36071;48.140;11.516;2023-02-04T15:03:28;97170.0;;;5.6;59.5
50166;BME280;36071;48.140;11.516;2023-02-04T15:08:28;97160.0;;;5.6;58.6
50166;BME280;36071;48.140;11.516;2023-02-04T15:13:28;97170.0;;;5.5;58.4
50166;BME280;36071;48.140;11.516;2023-02-04T15:18:28;97170.0;;;5.3;59.1
50166;BME280;36071;48.140;11.516;2023-02-04T15:23:28;97170.0;;;5.4;59.3
50166;BME280;36071;48.140;11.516;2023-02-04T15:28:28;97180.0;;;5.3;59.2
50166;BME280;36071;48.140;11.516;2023-02-04T15:33:28;97190.0;;;5.2;60.0
50166;BME280;36071;48.140;11.516;2023-02-04T15:38:28;97200.0;;;5.2;60.7
50166;BME280;36071;48.140;11.516;2023-02-04T15:43:28;97200.0;;;5.3;60.5
50166;BME280;36071;48.140;11.516;2023-02-04T15:48:28;97200.0;;;5.2;61.1
50166;BME280;36071;48.140;11.516;2023-02-04T15:53:28;97210.0;;;5.2;60.6
50166;BME280;36071;48.140;11.516;2023-02-04T15:58:28;97210.0;;;5.1;61.9
50166;BME280;36071;48.140;11.516;2023-02-04T16:03:28;97220.0;;;5.0;61.4
50166;BME280;36071;48.140;11.516;2023-02-04T16:08:28;97220.0;;;5.0;60.4
50166;BME280;36071;48.140;11.516;2023-02-04T16:13:28;97210.0;;;4.9;60.5
50166;BME280;36071;48.140;11.516;2023-02-04T16:18:28;97220.0;;;4.9;61.6
50166;BME280;36071;48.140;11.516;2023-02-04T16:23:28;97220.0;;;4.8;60.9
50166;BME280;36071;48.140;11.516;2023-02-04T16:28:28;97230.0;;;4.9;60.1
50166;BME280;36071;48.140;11.516;2023-02-04T16:33:28;97230.0;;;4.8;60.7
50166;BME280;36071;48.140;11.516;2023-02-04T16:38:28;97250.0;;;4.7;60.2
50166;BME280;36071;48.140;11.516;2023-02-04T16:43:28;97250.0;;;4.8;60.6
50166;BME280;36071;48.140;11.516;2023-02-04T16:48:28;97260.0;;;4.6;60.8
50166;BME280;36071;48.140;11.516;2023-02-04T16:53:28;97260.0;;;4.6;60.3
50166;BME280;36071;48.140;11.516;2023-02-04T16:58:28;97270.0;;;4.6;60.7
50166;BME280;36071;48.140;11.516;2023-02-04T17:03:28;97260.0;;;4.6;61.0
50166;BME280;36071;48.140;11.516;2023-02-04T17:08:28;97270.0;;;4.5;61.6
50166;BME280;36071;48.140;11.516;2023-02-04T17:13:28;97280.0;;;4.5;61.6
50166;BME280;36071;48.140;11.516;2023-02-04T17:18:29;97290.0;;;4.4;61.8
50166;BME280;36071;48.140;11.516;2023-02-04T17:23:28;97230.0;;;4.1;61.3
50166;BME280;36071;48.140;11.516;2023-02-04T17:28:28;97300.0;;;4.4;61.8
50166;BME280;36071;48.140;11.516;2023-02-04T17:33:28;97280.0;;;4.2;62.0
50166;BME280;36071;48.140;11.516;2023-02-04T17:38:28;97300.0;;;4.2;61.4
50166;BME280;36071;48.140;11.516;2023-02-04T17:43:28;97300.0;;;4.1;60.7
50166;BME280;36071;48.140;11.516;2023-02-04T17:48:28;97310.0;;;4.2;60.9
50166;BME280;36071;48.140;11.516;2023-02-04T17:53:28;97310.0;;;4.1;61.4
50166;BME280;36071;48.140;11.516;2023-02-04T17:58:28;97310.0;;;3.8;60.5
50166;BME280;36071;48.140;11.516;2023-02-04T18:03:28;97320.0;;;3.9;61.6
50166;BME280;36071;48.140;11.516;2023-02-04T18:08:31;97320.0;;;3.8;60.5
50166;BME280;36071;48.140;11.516;2023-02-04T18:13:29;97320.0;;;3.7;59.8
50166;BME280;36071;48.140;11.516;2023-02-04T18:18:29;97320.0;;;3.8;59.7
50166;BME280;36071;48.140;11.516;2023-02-04T18:23:29;97320.0;;;3.6;59.8
50166;BME280;36071;48.140;11.516;2023-02-04T18:28:28;97320.0;;;3.6;60.4
50166;BME280;36071;48.140;11.516;2023-02-04T18:33:28;97310.0;;;3.5;59.5
50166;BME280;36071;48.140;11.516;2023-02-04T18:38:28;97310.0;;;3.4;59.7
50166;BME280;36071;48.140;11.516;2023-02-04T18:43:29;97320.0;;;3.5;59.9
50166;BME280;36071;48.140;11.516;2023-02-04T18:48:53;97320.0;;;3.4;59.5
50166;BME280;36071;48.140;11.516;2023-02-04T18:53:28;97320.0;;;3.4;59.6
50166;BME280;36071;48.140;11.516;2023-02-04T18:58:28;97310.0;;;3.3;60.1
50166;BME280;36071;48.140;11.516;2023-02-04T19:03:28;97320.0;;;3.3;59.9
50166;BME280;36071;48.140;11.516;2023-02-04T19:08:28;97320.0;;;3.3;59.7
50166;BME280;36071;48.140;11.516;2023-02-04T19:13:35;97330.0;;;3.2;59.8
50166;BME280;36071;48.140;11.516;2023-02-04T19:18:28;97330.0;;;3.2;60.5
50166;BME280;36071;48.140;11.516;2023-02-04T19:23:32;97320.0;;;3.2;60.5
50166;BME280;36071;48.140;11.516;2023-02-04T19:28:28;97320.0;;;3.1;59.9
50166;BME280;36071;48.140;11.516;2023-02-04T19:33:30;97320.0;;;3.1;60.1
50166;BME280;36071;48.140;11.516;2023-02-04T19:38:33;97310.0;;;3.0;60.3
50166;BME280;36071;48.140;11.516;2023-02-04T19:43:32;97320.0;;;2.9;61.2
50166;BME280;36071;48.140;11.516;2023-02-04T19:48:31;97320.0;;;2.8;61.2
50166;BME280;36071;48.140;11.516;2023-02-04T19:53:28;97320.0;;;2.8;61.7
50166;BME280;36071;48.140;11.516;2023-02-04T19:58:32;97320.0;;;2.7;62.0
50166;BME280;36071;48.140;11.516;2023-02-04T20:08:34;97330.0;;;2.7;61.9
50166;BME280;36071;48.140;11.516;2023-02-04T20:13:28;97330.0;;;2.6;62.3
50166;BME280;36071;48.140;11.516;2023-02-04T20:18:28;97330.0;;;2.6;62.4
50166;BME280;36071;48.140;11.516;2023-02-04T20:23:28;97320.0;;;2.3;62.3
50166;BME280;36071;48.140;11.516;2023-02-04T20:28:36;97330.0;;;2.4;62.5
50166;BME280;36071;48.140;11.516;2023-02-04T20:33:30;97330.0;;;2.4;62.3
50166;BME280;36071;48.140;11.516;2023-02-04T20:38:28;97340.0;;;2.4;61.8
50166;BME280;36071;48.140;11.516;2023-02-04T20:43:28;97340.0;;;2.4;61.7
50166;BME280;36071;48.140;11.516;2023-02-04T20:48:30;97340.0;;;2.3;62.1
50166;BME280;36071;48.140;11.516;2023-02-04T20:53:34;97340.0;;;2.3;61.5
50166;BME280;36071;48.140;11.516;2023-02-04T20:58:31;97360.0;;;2.3;61.8
50166;BME280;36071;48.140;11.516;2023-02-04T21:03:28;97360.0;;;2.3;61.7
50166;BME280;36071;48.140;11.516;2023-02-04T21:08:32;97360.0;;;2.4;62.3
50166;BME280;36071;48.140;11.516;2023-02-04T21:13:28;97380.0;;;2.3;63.1
50166;BME280;36071;48.140;11.516;2023-02-04T21:18:28;97380.0;;;2.1;62.8
50166;BME280;36071;48.140;11.516;2023-02-04T21:23:28;97370.0;;;2.3;62.2
50166;BME280;36071;48.140;11.516;2023-02-04T21:28:28;97370.0;;;2.2;62.8
50166;BME280;36071;48.140;11.516;2023-02-04T21:33:28;97370.0;;;2.2;62.6
50166;BME280;36071;48.140;11.516;2023-02-04T21:38:28;97370.0;;;2.2;64.0
50166;BME280;36071;48.140;11.516;2023-02-04T21:43:28;97370.0;;;2.1;64.2
50166;BME280;36071;48.140;11.516;2023-02-04T21:48:28;97380.0;;;2.0;64.1
50166;BME280;36071;48.140;11.516;2023-02-04T21:53:28;97380.0;;;1.9;64.1
50166;BME280;36071;48.140;11.516;2023-02-04T21:58:28;97380.0;;;2.1;63.2
50166;BME280;36071;48.140;11.516;2023-02-04T22:03:28;97390.0;;;2.2;63.5
50166;BME280;36071;48.140;11.516;2023-02-04T22:08:28;97390.0;;;2.2;63.6
50166;BME280;36071;48.140;11.516;2023-02-04T22:13:28;97390.0;;;2.2;62.6
50166;BME280;36071;48.140;11.516;2023-02-04T22:18:28;97380.0;;;2.1;63.0
50166;BME280;36071;48.140;11.516;2023-02-04T22:23:28;97390.0;;;2.0;63.1
50166;BME280;36071;48.140;11.516;2023-02-04T22:28:28;97390.0;;;2.0;63.0
50166;BME280;36071;48.140;11.516;2023-02-04T22:33:28;97410.0;;;2.1;63.5
50166;BME280;36071;48.140;11.516;2023-02-04T22:38:28;97400.0;;;2.1;64.1
50166;BME280;36071;48.140;11.516;2023-02-04T22:43:28;97390.0;;;2.0;64.5
50166;BME280;36071;48.140;11.516;2023-02-04T22:48:28;97390.0;;;1.9;64.4
50166;BME280;36071;48.140;11.516;2023-02-04T22:53:28;97400.0;;;2.0;64.1
50166;BME280;36071;48.140;11.516;2023-02-04T22:58:28;97400.0;;;2.0;63.7
50166;BME280;36071;48.140;11.516;2023-02-04T23:03:28;97380.0;;;1.8;64.4
50166;BME280;36071;48.140;11.516;2023-02-04T23:08:28;97390.0;;;1.9;64.5
50166;BME280;36071;48.140;11.516;2023-02-04T23:13:28;97390.0;;;1.9;63.6
50166;BME280;36071;48.140;11.516;2023-02-04T23:18:28;97380.0;;;1.8;64.1
50166;BME280;36071;48.140;11.516;2023-02-04T23:23:28;97380.0;;;1.8;64.5
50166;BME280;36071;48.140;11.516;2023-02-04T23:28:28;97370.0;;;1.6;64.4
50166;BME280;36071;48.140;11.516;2023-02-04T23:33:28;97370.0;;;1.7;63.9
50166;BME280;36071;48.140;11.516;2023-02-04T23:38:28;97380.0;;;1.7;63.8
50166;BME280;36071;48.140;11.516;2023-02-04T23:43:28;97380.0;;;1.7;64.1
50166;BME280;36071;48.140;11.516;2023-02-04T23:48:28;97370.0;;;1.7;63.8
50166;BME280;36071;48.140;11.516;2023-02-04T23:53:28;97380.0;;;1.7;63.8
50166;BME280;36071;48.140;11.516;2023-02-04T23:58:28;97380.0;;;1.6;64.7
